SBPJ

Details ICAO SBPJ (PMW)
Name Tocantins
Region Brazil
Timezone America/Araguaina (UTC-3.0)
Plans Departing 64
Arriving 58
Stats Elevation 774 ft / 236 m (AMSL)
Location -10.291524° -48.356972°
Runways 1
Magnetic Variation 21.252° W
Sunrise 2017-12-14 08:48:00 UTC / 2017-12-14 05:48:00 Local
Sunset 2017-12-14 21:31:09 UTC / 2017-12-14 18:31:09 Local
Advertisement - Login to hide

Runways

ID Width Length Bearing (true) Bearing (mag) Surface Threshold Offset Overrun Length
14 148 ft / 45 m 8,194 ft / 2,497 m 124.06° 145.31° Asphalt 0 ft / 0 m 0 ft / 0 m
32 148 ft / 45 m 8,194 ft / 2,497 m 304.06° 325.31° Asphalt 0 ft / 0 m 0 ft / 0 m

Map

Weather


0- 5 10 15 20 25 30 35+ Temperature / ° C

Clouds and Precipitation
Forecast for 2017-12-15 06:00 UTC. Updated 2 hours ago

Ground ~20,000 ft ~40,000 ft Winds

METAR

Not found

TAF

TAF SBPJ 142000Z 1500/1512 11007KT 9000 NSC TN23/1509Z TX26/1512Z RMK PCZ

Frequencies

Tower 119.00 MHz PALMAS RDO
Approach 119.00 MHz PALMAS APP
Tower 118.00 MHz PALMAS TWR
Warning: Do not use this data for real-world aviation or navigation. No guarantee of current accuracy is given.